Skip Navigation

Christman Field Latest Observations

Switch to metric unitsOther observation timesWeekly graphs

Date Time
MST
Temp
°F
RH
%
DewPt
°F
Wind
mph
Dir
°
Gust
mph
Dir
°
Press
in Hg
Solar
W/m^2
Prec
in
2019-02-20 06:05 16.7 40.2 -3.4 2.6 18 4.7 4 24.426 0.0 0.00
2019-02-20 06:00 17.0 36.5 -5.1 5.5 260 10.3 280 24.425 0.0 0.00
2019-02-20 05:55 17.7 34.8 -5.4 8.8 275 13.3 230 24.424 0.0 0.00
2019-02-20 05:50 17.5 35.3 -5.3 10.0 254 14.4 255 24.423 0.0 0.00
2019-02-20 05:45 17.7 41.1 -2.0 10.9 259 14.9 233 24.423 0.0 0.00
2019-02-20 05:40 17.1 40.8 -2.7 11.5 219 18.9 230 24.422 0.0 0.00
2019-02-20 05:35 15.9 44.2 -2.1 8.8 214 13.4 273 24.424 0.0 0.00
2019-02-20 05:30 15.1 53.9 1.4 10.3 232 19.7 267 24.424 0.0 0.00
2019-02-20 05:25 8.5 62.6 -1.7 7.7 254 20.2 262 24.427 0.0 0.00
2019-02-20 05:20 6.5 85.3 3.0 3.3 151 8.0 248 24.424 0.0 0.00
2019-02-20 05:15 7.4 84.3 3.6 0.8 282 3.9 124 24.424 0.0 0.00
2019-02-20 05:10 8.2 83.9 4.3 2.6 37 6.5 314 24.424 0.0 0.00
2019-02-20 05:05 8.8 83.2 4.8 7.1 317 10.7 156 24.423 0.0 0.00
2019-02-20 05:00 8.2 86.9 5.1 3.0 140 7.9 140 24.428 0.0 0.00
2019-02-20 04:55 9.4 86.9 6.2 6.3 201 9.0 220 24.427 0.0 0.00
2019-02-20 04:50 8.5 90.7 6.4 3.9 183 8.7 183 24.429 0.0 0.00
2019-02-20 04:45 5.0 90.4 2.8 5.3 50 12.0 263 24.442 0.0 0.00
2019-02-20 04:40 2.6 91.3 0.6 4.1 108 5.7 115 24.437 0.0 0.00
2019-02-20 04:35 1.6 85.2 -1.8 0.1 120 1.3 120 24.447 0.0 0.00
2019-02-20 04:30 1.5 88.5 -1.1 1.3 80 5.3 343 24.441 0.0 0.00
2019-02-20 04:25 1.9 84.8 -1.6 3.2 342 5.7 339 24.442 0.0 0.00
2019-02-20 04:20 4.0 83.8 0.2 2.0 352 5.4 352 24.439 0.0 0.00
2019-02-20 04:15 4.0 88.1 1.3 1.6 182 3.5 188 24.439 0.0 0.00
2019-02-20 04:10 3.4 88.6 0.8 2.1 187 3.3 206 24.439 0.0 0.00
2019-02-20 04:05 2.6 88.6 -0.0 0.2 206 0.9 206 24.439 0.0 0.00
2019-02-20 04:00 2.3 87.6 -0.6 0.9 276 4.4 284 24.438 0.0 0.00
2019-02-20 03:55 1.7 86.6 -1.3 4.5 290 6.8 306 24.441 0.0 0.00
2019-02-20 03:50 3.4 85.2 -0.0 0.0 41 0.0 41 24.439 0.0 0.00
2019-02-20 03:45 4.9 87.8 2.0 1.7 41 3.7 52 24.440 0.0 0.00
2019-02-20 03:40 5.8 88.9 3.3 2.7 57 4.5 162 24.440 0.0 0.00